sensor_id;sensor_type;location;lat;lon;timestamp;temperature;humidity
21805;DHT22;11064;47.102;15.452;2023-04-22T00:00:27;7.20;99.90
21805;DHT22;11064;47.102;15.452;2023-04-22T00:02:53;7.10;99.90
21805;DHT22;11064;47.102;15.452;2023-04-22T00:05:21;7.00;99.90
21805;DHT22;11064;47.102;15.452;2023-04-22T00:07:47;7.00;99.90
21805;DHT22;11064;47.102;15.452;2023-04-22T00:10:13;7.00;99.90
21805;DHT22;11064;47.102;15.452;2023-04-22T00:12:39;6.90;99.90
21805;DHT22;11064;47.102;15.452;2023-04-22T00:15:05;6.90;99.90
21805;DHT22;11064;47.102;15.452;2023-04-22T00:17:32;6.90;99.90
21805;DHT22;11064;47.102;15.452;2023-04-22T00:19:58;6.90;99.90
21805;DHT22;11064;47.102;15.452;2023-04-22T00:22:26;6.90;99.90
21805;DHT22;11064;47.102;15.452;2023-04-22T00:24:52;6.90;99.90
21805;DHT22;11064;47.102;15.452;2023-04-22T00:27:17;6.90;99.90
21805;DHT22;11064;47.102;15.452;2023-04-22T00:29:44;6.80;99.90
21805;DHT22;11064;47.102;15.452;2023-04-22T00:32:09;6.80;99.90
21805;DHT22;11064;47.102;15.452;2023-04-22T00:34:35;6.90;99.90
21805;DHT22;11064;47.102;15.452;2023-04-22T00:37:01;6.90;99.90
21805;DHT22;11064;47.102;15.452;2023-04-22T00:39:27;6.80;99.90
21805;DHT22;11064;47.102;15.452;2023-04-22T00:41:53;6.80;99.90
21805;DHT22;11064;47.102;15.452;2023-04-22T00:44:21;6.80;99.90
21805;DHT22;11064;47.102;15.452;2023-04-22T00:46:47;6.80;99.90
21805;DHT22;11064;47.102;15.452;2023-04-22T00:49:14;6.70;99.90
21805;DHT22;11064;47.102;15.452;2023-04-22T00:51:40;6.70;99.90
21805;DHT22;11064;47.102;15.452;2023-04-22T00:54:06;6.70;99.90
21805;DHT22;11064;47.102;15.452;2023-04-22T00:56:32;6.80;99.90
21805;DHT22;11064;47.102;15.452;2023-04-22T00:59:01;6.80;99.90
21805;DHT22;11064;47.102;15.452;2023-04-22T01:01:27;6.70;99.90
21805;DHT22;11064;47.102;15.452;2023-04-22T01:03:54;6.70;99.90
21805;DHT22;11064;47.102;15.452;2023-04-22T01:06:21;6.70;99.90
21805;DHT22;11064;47.102;15.452;2023-04-22T01:08:48;6.70;99.90
21805;DHT22;11064;47.102;15.452;2023-04-22T01:11:14;6.70;99.90
21805;DHT22;11064;47.102;15.452;2023-04-22T01:13:40;6.60;99.90
21805;DHT22;11064;47.102;15.452;2023-04-22T01:16:07;6.50;99.90
21805;DHT22;11064;47.102;15.452;2023-04-22T01:18:35;6.40;99.90
21805;DHT22;11064;47.102;15.452;2023-04-22T01:21:01;6.40;99.90
21805;DHT22;11064;47.102;15.452;2023-04-22T01:23:28;6.40;99.90
21805;DHT22;11064;47.102;15.452;2023-04-22T01:25:54;6.40;99.90
21805;DHT22;11064;47.102;15.452;2023-04-22T01:28:20;6.40;99.90
21805;DHT22;11064;47.102;15.452;2023-04-22T01:30:48;6.30;99.90
21805;DHT22;11064;47.102;15.452;2023-04-22T01:33:15;6.30;99.90
21805;DHT22;11064;47.102;15.452;2023-04-22T01:35:41;6.40;99.90
21805;DHT22;11064;47.102;15.452;2023-04-22T01:38:09;6.30;99.90
21805;DHT22;11064;47.102;15.452;2023-04-22T01:40:37;6.30;99.90
21805;DHT22;11064;47.102;15.452;2023-04-22T01:43:03;6.30;99.90
21805;DHT22;11064;47.102;15.452;2023-04-22T01:45:29;6.30;99.90
21805;DHT22;11064;47.102;15.452;2023-04-22T01:47:54;6.20;99.90
21805;DHT22;11064;47.102;15.452;2023-04-22T01:50:21;6.20;99.90
21805;DHT22;11064;47.102;15.452;2023-04-22T01:52:47;6.20;99.90
21805;DHT22;11064;47.102;15.452;2023-04-22T01:55:13;6.20;99.90
21805;DHT22;11064;47.102;15.452;2023-04-22T01:57:39;6.20;99.90
21805;DHT22;11064;47.102;15.452;2023-04-22T02:00:07;6.20;99.90
21805;DHT22;11064;47.102;15.452;2023-04-22T02:02:33;6.10;99.90
21805;DHT22;11064;47.102;15.452;2023-04-22T02:04:59;6.10;99.90
21805;DHT22;11064;47.102;15.452;2023-04-22T02:07:25;6.20;99.90
21805;DHT22;11064;47.102;15.452;2023-04-22T02:09:51;6.20;99.90
21805;DHT22;11064;47.102;15.452;2023-04-22T02:12:18;6.20;99.90
21805;DHT22;11064;47.102;15.452;2023-04-22T02:14:43;6.10;99.90
21805;DHT22;11064;47.102;15.452;2023-04-22T02:17:09;6.10;99.90
21805;DHT22;11064;47.102;15.452;2023-04-22T02:19:35;6.10;99.90
21805;DHT22;11064;47.102;15.452;2023-04-22T02:22:01;6.10;99.90
21805;DHT22;11064;47.102;15.452;2023-04-22T02:24:27;6.10;99.90
21805;DHT22;11064;47.102;15.452;2023-04-22T02:26:52;6.10;99.90
21805;DHT22;11064;47.102;15.452;2023-04-22T02:29:18;6.10;99.90
21805;DHT22;11064;47.102;15.452;2023-04-22T02:31:44;6.00;99.90
21805;DHT22;11064;47.102;15.452;2023-04-22T02:34:10;6.00;99.90
21805;DHT22;11064;47.102;15.452;2023-04-22T02:36:36;5.90;99.90
21805;DHT22;11064;47.102;15.452;2023-04-22T02:39:02;5.90;99.90
21805;DHT22;11064;47.102;15.452;2023-04-22T02:41:31;5.80;99.90
21805;DHT22;11064;47.102;15.452;2023-04-22T02:43:57;5.80;99.90
21805;DHT22;11064;47.102;15.452;2023-04-22T02:46:22;5.80;99.90
21805;DHT22;11064;47.102;15.452;2023-04-22T02:48:48;5.80;99.90
21805;DHT22;11064;47.102;15.452;2023-04-22T02:51:14;5.80;99.90
21805;DHT22;11064;47.102;15.452;2023-04-22T02:53:40;5.80;99.90
21805;DHT22;11064;47.102;15.452;2023-04-22T02:56:06;5.80;99.90
21805;DHT22;11064;47.102;15.452;2023-04-22T02:58:33;5.80;99.90
21805;DHT22;11064;47.102;15.452;2023-04-22T03:00:59;5.80;99.90
21805;DHT22;11064;47.102;15.452;2023-04-22T03:03:25;5.70;99.90
21805;DHT22;11064;47.102;15.452;2023-04-22T03:05:51;5.80;99.90
21805;DHT22;11064;47.102;15.452;2023-04-22T03:08:17;5.70;99.90
21805;DHT22;11064;47.102;15.452;2023-04-22T03:10:43;5.70;99.90
21805;DHT22;11064;47.102;15.452;2023-04-22T03:13:09;5.60;99.90
21805;DHT22;11064;47.102;15.452;2023-04-22T03:15:35;5.50;99.90
21805;DHT22;11064;47.102;15.452;2023-04-22T03:18:01;5.40;99.90
21805;DHT22;11064;47.102;15.452;2023-04-22T03:20:26;5.50;99.90
21805;DHT22;11064;47.102;15.452;2023-04-22T03:22:52;5.50;99.90
21805;DHT22;11064;47.102;15.452;2023-04-22T03:25:18;5.50;99.90
21805;DHT22;11064;47.102;15.452;2023-04-22T03:27:44;5.50;99.90
21805;DHT22;11064;47.102;15.452;2023-04-22T03:30:10;5.50;99.90
21805;DHT22;11064;47.102;15.452;2023-04-22T03:32:36;5.50;99.90
21805;DHT22;11064;47.102;15.452;2023-04-22T03:35:02;5.50;99.90
21805;DHT22;11064;47.102;15.452;2023-04-22T03:37:29;5.50;99.90
21805;DHT22;11064;47.102;15.452;2023-04-22T03:39:55;5.40;99.90
21805;DHT22;11064;47.102;15.452;2023-04-22T03:42:20;5.40;99.90
21805;DHT22;11064;47.102;15.452;2023-04-22T03:44:46;5.50;99.90
21805;DHT22;11064;47.102;15.452;2023-04-22T03:47:12;5.50;99.90
21805;DHT22;11064;47.102;15.452;2023-04-22T03:49:38;5.40;99.90
21805;DHT22;11064;47.102;15.452;2023-04-22T03:52:04;5.40;99.90
21805;DHT22;11064;47.102;15.452;2023-04-22T03:54:29;5.40;99.90
21805;DHT22;11064;47.102;15.452;2023-04-22T03:56:55;5.40;99.90
21805;DHT22;11064;47.102;15.452;2023-04-22T03:59:22;5.40;99.90
21805;DHT22;11064;47.102;15.452;2023-04-22T04:01:50;5.40;99.90
21805;DHT22;11064;47.102;15.452;2023-04-22T04:04:19;5.40;99.90
21805;DHT22;11064;47.102;15.452;2023-04-22T04:06:47;5.40;99.90
21805;DHT22;11064;47.102;15.452;2023-04-22T04:09:13;5.40;99.90
21805;DHT22;11064;47.102;15.452;2023-04-22T04:11:39;5.40;99.90
21805;DHT22;11064;47.102;15.452;2023-04-22T04:14:05;5.40;99.90
21805;DHT22;11064;47.102;15.452;2023-04-22T04:16:31;5.50;99.90
21805;DHT22;11064;47.102;15.452;2023-04-22T04:18:57;5.50;99.90
21805;DHT22;11064;47.102;15.452;2023-04-22T04:21:22;5.60;99.90
21805;DHT22;11064;47.102;15.452;2023-04-22T04:23:48;5.60;99.90
21805;DHT22;11064;47.102;15.452;2023-04-22T04:26:14;5.60;99.90
21805;DHT22;11064;47.102;15.452;2023-04-22T04:28:41;5.60;99.90
21805;DHT22;11064;47.102;15.452;2023-04-22T04:31:07;5.60;99.90
21805;DHT22;11064;47.102;15.452;2023-04-22T04:33:32;5.70;99.90
21805;DHT22;11064;47.102;15.452;2023-04-22T04:35:59;5.70;99.90
21805;DHT22;11064;47.102;15.452;2023-04-22T04:38:25;5.80;99.90
21805;DHT22;11064;47.102;15.452;2023-04-22T04:40:52;5.80;99.90
21805;DHT22;11064;47.102;15.452;2023-04-22T04:43:18;5.80;99.90
21805;DHT22;11064;47.102;15.452;2023-04-22T05:01:16;7.50;99.90
21805;DHT22;11064;47.102;15.452;2023-04-22T05:03:42;7.70;99.90
21805;DHT22;11064;47.102;15.452;2023-04-22T05:06:08;7.70;99.90
21805;DHT22;11064;47.102;15.452;2023-04-22T05:08:35;7.80;99.90
21805;DHT22;11064;47.102;15.452;2023-04-22T05:11:00;8.10;99.90
21805;DHT22;11064;47.102;15.452;2023-04-22T05:13:26;8.20;99.90
21805;DHT22;11064;47.102;15.452;2023-04-22T05:15:52;8.00;99.90
21805;DHT22;11064;47.102;15.452;2023-04-22T05:18:18;7.70;99.90
21805;DHT22;11064;47.102;15.452;2023-04-22T05:20:44;7.50;99.90
21805;DHT22;11064;47.102;15.452;2023-04-22T05:23:09;7.40;99.90
21805;DHT22;11064;47.102;15.452;2023-04-22T05:25:35;7.40;99.90
21805;DHT22;11064;47.102;15.452;2023-04-22T05:28:01;7.40;99.90
21805;DHT22;11064;47.102;15.452;2023-04-22T05:30:27;7.50;99.90
21805;DHT22;11064;47.102;15.452;2023-04-22T05:32:53;7.50;99.90
21805;DHT22;11064;47.102;15.452;2023-04-22T05:35:18;7.70;99.90
21805;DHT22;11064;47.102;15.452;2023-04-22T05:37:44;7.80;99.90
21805;DHT22;11064;47.102;15.452;2023-04-22T05:40:10;7.90;99.90
21805;DHT22;11064;47.102;15.452;2023-04-22T05:42:36;8.00;99.90
21805;DHT22;11064;47.102;15.452;2023-04-22T05:45:02;8.10;99.90
21805;DHT22;11064;47.102;15.452;2023-04-22T05:47:29;8.20;99.90
21805;DHT22;11064;47.102;15.452;2023-04-22T05:49:55;8.30;99.90
21805;DHT22;11064;47.102;15.452;2023-04-22T05:52:20;8.40;99.90
21805;DHT22;11064;47.102;15.452;2023-04-22T05:54:46;8.60;99.90
21805;DHT22;11064;47.102;15.452;2023-04-22T05:57:12;8.80;99.90
21805;DHT22;11064;47.102;15.452;2023-04-22T05:59:38;8.90;99.90
21805;DHT22;11064;47.102;15.452;2023-04-22T06:02:04;8.90;99.90
21805;DHT22;11064;47.102;15.452;2023-04-22T06:04:29;9.10;99.90
21805;DHT22;11064;47.102;15.452;2023-04-22T06:06:55;9.30;99.90
21805;DHT22;11064;47.102;15.452;2023-04-22T06:09:21;9.40;99.90
21805;DHT22;11064;47.102;15.452;2023-04-22T06:11:47;9.50;99.90
21805;DHT22;11064;47.102;15.452;2023-04-22T06:14:13;9.50;99.90
21805;DHT22;11064;47.102;15.452;2023-04-22T06:16:40;9.60;99.90
21805;DHT22;11064;47.102;15.452;2023-04-22T06:19:06;9.70;99.90
21805;DHT22;11064;47.102;15.452;2023-04-22T06:21:32;9.80;99.90
21805;DHT22;11064;47.102;15.452;2023-04-22T06:23:59;10.00;99.90
21805;DHT22;11064;47.102;15.452;2023-04-22T06:26:26;10.10;99.90
21805;DHT22;11064;47.102;15.452;2023-04-22T06:28:52;10.30;99.90
21805;DHT22;11064;47.102;15.452;2023-04-22T06:31:18;10.30;99.90
21805;DHT22;11064;47.102;15.452;2023-04-22T06:33:44;10.40;99.90
21805;DHT22;11064;47.102;15.452;2023-04-22T06:36:11;10.60;99.90
21805;DHT22;11064;47.102;15.452;2023-04-22T06:38:37;10.90;99.90
21805;DHT22;11064;47.102;15.452;2023-04-22T06:41:03;11.10;99.90
21805;DHT22;11064;47.102;15.452;2023-04-22T06:43:29;11.20;99.90
21805;DHT22;11064;47.102;15.452;2023-04-22T06:45:55;11.30;99.90
21805;DHT22;11064;47.102;15.452;2023-04-22T06:48:20;11.50;99.90
21805;DHT22;11064;47.102;15.452;2023-04-22T06:50:46;11.60;99.90
21805;DHT22;11064;47.102;15.452;2023-04-22T06:53:12;11.90;99.90
21805;DHT22;11064;47.102;15.452;2023-04-22T06:55:38;12.00;99.90
21805;DHT22;11064;47.102;15.452;2023-04-22T06:58:04;12.20;99.90
21805;DHT22;11064;47.102;15.452;2023-04-22T07:00:30;12.30;99.90
21805;DHT22;11064;47.102;15.452;2023-04-22T07:02:56;12.40;99.90
21805;DHT22;11064;47.102;15.452;2023-04-22T07:05:22;12.60;99.90
21805;DHT22;11064;47.102;15.452;2023-04-22T07:07:48;12.70;99.90
21805;DHT22;11064;47.102;15.452;2023-04-22T07:10:14;12.80;99.90
21805;DHT22;11064;47.102;15.452;2023-04-22T07:12:40;12.90;99.90
21805;DHT22;11064;47.102;15.452;2023-04-22T07:15:06;13.10;99.90
21805;DHT22;11064;47.102;15.452;2023-04-22T07:17:32;13.20;99.90
21805;DHT22;11064;47.102;15.452;2023-04-22T07:19:58;13.20;99.90
21805;DHT22;11064;47.102;15.452;2023-04-22T07:22:24;13.20;99.90
21805;DHT22;11064;47.102;15.452;2023-04-22T07:24:50;13.20;99.90
21805;DHT22;11064;47.102;15.452;2023-04-22T07:27:16;13.10;99.90
21805;DHT22;11064;47.102;15.452;2023-04-22T07:29:42;13.20;99.90
21805;DHT22;11064;47.102;15.452;2023-04-22T07:32:08;13.30;99.90
21805;DHT22;11064;47.102;15.452;2023-04-22T07:34:34;13.40;99.90
21805;DHT22;11064;47.102;15.452;2023-04-22T07:37:00;13.50;99.90
21805;DHT22;11064;47.102;15.452;2023-04-22T07:39:26;13.60;99.90
21805;DHT22;11064;47.102;15.452;2023-04-22T07:41:52;13.70;99.90
21805;DHT22;11064;47.102;15.452;2023-04-22T07:44:19;13.90;99.90
21805;DHT22;11064;47.102;15.452;2023-04-22T07:46:49;14.20;99.90
21805;DHT22;11064;47.102;15.452;2023-04-22T07:49:15;14.30;99.90
21805;DHT22;11064;47.102;15.452;2023-04-22T07:51:44;14.40;99.90
21805;DHT22;11064;47.102;15.452;2023-04-22T07:54:10;14.40;99.90
21805;DHT22;11064;47.102;15.452;2023-04-22T07:56:36;14.40;99.90
21805;DHT22;11064;47.102;15.452;2023-04-22T07:59:02;14.40;99.90
21805;DHT22;11064;47.102;15.452;2023-04-22T08:01:28;14.50;99.90
21805;DHT22;11064;47.102;15.452;2023-04-22T08:03:54;14.50;99.90
21805;DHT22;11064;47.102;15.452;2023-04-22T08:06:20;14.60;99.90
21805;DHT22;11064;47.102;15.452;2023-04-22T08:08:45;14.80;99.90
21805;DHT22;11064;47.102;15.452;2023-04-22T08:11:11;15.00;99.90
21805;DHT22;11064;47.102;15.452;2023-04-22T08:13:37;15.00;99.90
21805;DHT22;11064;47.102;15.452;2023-04-22T08:16:03;15.20;99.90
21805;DHT22;11064;47.102;15.452;2023-04-22T08:18:29;15.30;98.60
21805;DHT22;11064;47.102;15.452;2023-04-22T08:20:55;15.40;97.90
21805;DHT22;11064;47.102;15.452;2023-04-22T08:23:21;15.50;96.70
21805;DHT22;11064;47.102;15.452;2023-04-22T08:25:50;15.40;96.30
21805;DHT22;11064;47.102;15.452;2023-04-22T08:28:16;15.50;96.90
21805;DHT22;11064;47.102;15.452;2023-04-22T08:30:42;15.50;96.50
21805;DHT22;11064;47.102;15.452;2023-04-22T08:33:08;15.60;96.70
21805;DHT22;11064;47.102;15.452;2023-04-22T08:35:35;15.70;95.60
21805;DHT22;11064;47.102;15.452;2023-04-22T08:38:01;15.90;95.60
21805;DHT22;11064;47.102;15.452;2023-04-22T08:40:28;16.10;96.10
21805;DHT22;11064;47.102;15.452;2023-04-22T08:42:54;16.20;95.60
21805;DHT22;11064;47.102;15.452;2023-04-22T08:45:23;16.10;93.10
21805;DHT22;11064;47.102;15.452;2023-04-22T08:47:49;16.10;94.30
21805;DHT22;11064;47.102;15.452;2023-04-22T08:50:15;16.20;94.10
21805;DHT22;11064;47.102;15.452;2023-04-22T08:52:41;16.30;93.70
21805;DHT22;11064;47.102;15.452;2023-04-22T08:55:08;16.20;93.80
21805;DHT22;11064;47.102;15.452;2023-04-22T08:57:35;16.30;93.40
21805;DHT22;11064;47.102;15.452;2023-04-22T09:00:03;16.40;92.50
21805;DHT22;11064;47.102;15.452;2023-04-22T09:02:31;16.50;92.60
21805;DHT22;11064;47.102;15.452;2023-04-22T09:05:01;16.70;93.70
21805;DHT22;11064;47.102;15.452;2023-04-22T09:07:28;16.80;93.40
21805;DHT22;11064;47.102;15.452;2023-04-22T09:09:55;16.80;91.50
21805;DHT22;11064;47.102;15.452;2023-04-22T09:12:21;16.80;90.50
21805;DHT22;11064;47.102;15.452;2023-04-22T09:14:47;16.60;89.20
21805;DHT22;11064;47.102;15.452;2023-04-22T09:17:18;16.70;90.80
21805;DHT22;11064;47.102;15.452;2023-04-22T09:19:58;16.80;91.00
21805;DHT22;11064;47.102;15.452;2023-04-22T09:22:25;16.90;90.70
21805;DHT22;11064;47.102;15.452;2023-04-22T09:24:51;16.90;87.90
21805;DHT22;11064;47.102;15.452;2023-04-22T09:27:18;16.90;90.10
21805;DHT22;11064;47.102;15.452;2023-04-22T09:29:49;16.70;90.20
21805;DHT22;11064;47.102;15.452;2023-04-22T09:32:18;16.80;91.60
21805;DHT22;11064;47.102;15.452;2023-04-22T09:34:52;16.90;89.30
21805;DHT22;11064;47.102;15.452;2023-04-22T09:37:27;16.80;91.60
21805;DHT22;11064;47.102;15.452;2023-04-22T09:39:53;17.00;92.10
21805;DHT22;11064;47.102;15.452;2023-04-22T09:42:20;16.90;90.70
21805;DHT22;11064;47.102;15.452;2023-04-22T09:44:48;17.10;91.20
21805;DHT22;11064;47.102;15.452;2023-04-22T09:47:17;17.40;90.70
21805;DHT22;11064;47.102;15.452;2023-04-22T09:49:46;17.40;91.20
21805;DHT22;11064;47.102;15.452;2023-04-22T09:52:23;17.40;90.20
21805;DHT22;11064;47.102;15.452;2023-04-22T09:54:52;17.40;89.30
21805;DHT22;11064;47.102;15.452;2023-04-22T09:57:18;17.30;89.90
21805;DHT22;11064;47.102;15.452;2023-04-22T09:59:44;17.30;90.50
21805;DHT22;11064;47.102;15.452;2023-04-22T10:02:10;17.30;91.50
21805;DHT22;11064;47.102;15.452;2023-04-22T10:04:36;17.50;89.60
21805;DHT22;11064;47.102;15.452;2023-04-22T10:07:02;17.50;91.00
21805;DHT22;11064;47.102;15.452;2023-04-22T10:09:28;17.40;91.30
21805;DHT22;11064;47.102;15.452;2023-04-22T10:11:55;17.50;87.50
21805;DHT22;11064;47.102;15.452;2023-04-22T10:14:24;17.50;90.50
21805;DHT22;11064;47.102;15.452;2023-04-22T10:16:55;17.60;89.10
21805;DHT22;11064;47.102;15.452;2023-04-22T10:19:23;17.90;90.00
21805;DHT22;11064;47.102;15.452;2023-04-22T10:22:02;18.00;89.80
21805;DHT22;11064;47.102;15.452;2023-04-22T10:24:34;18.20;89.10
21805;DHT22;11064;47.102;15.452;2023-04-22T10:27:03;18.10;83.00
21805;DHT22;11064;47.102;15.452;2023-04-22T10:29:37;18.00;87.60
21805;DHT22;11064;47.102;15.452;2023-04-22T10:32:22;18.10;89.90
21805;DHT22;11064;47.102;15.452;2023-04-22T10:35:07;18.30;88.30
21805;DHT22;11064;47.102;15.452;2023-04-22T10:37:33;18.10;81.00
21805;DHT22;11064;47.102;15.452;2023-04-22T10:40:16;18.40;84.40
21805;DHT22;11064;47.102;15.452;2023-04-22T10:42:48;18.50;83.00
21805;DHT22;11064;47.102;15.452;2023-04-22T10:45:15;18.70;80.80
21805;DHT22;11064;47.102;15.452;2023-04-22T10:47:41;18.60;82.40
21805;DHT22;11064;47.102;15.452;2023-04-22T10:50:30;18.80;81.30
21805;DHT22;11064;47.102;15.452;2023-04-22T10:55:51;19.00;76.50
21805;DHT22;11064;47.102;15.452;2023-04-22T10:58:19;19.20;76.60
21805;DHT22;11064;47.102;15.452;2023-04-22T11:00:45;19.20;79.80
21805;DHT22;11064;47.102;15.452;2023-04-22T11:03:14;19.30;79.60
21805;DHT22;11064;47.102;15.452;2023-04-22T11:05:41;19.40;74.00
21805;DHT22;11064;47.102;15.452;2023-04-22T11:08:12;19.70;73.80
21805;DHT22;11064;47.102;15.452;2023-04-22T11:10:41;20.00;67.30
21805;DHT22;11064;47.102;15.452;2023-04-22T11:13:19;19.90;69.10
21805;DHT22;11064;47.102;15.452;2023-04-22T11:15:55;20.00;70.10
21805;DHT22;11064;47.102;15.452;2023-04-22T11:18:22;20.10;72.20
21805;DHT22;11064;47.102;15.452;2023-04-22T11:20:50;20.20;72.00
21805;DHT22;11064;47.102;15.452;2023-04-22T11:23:23;20.10;68.90
21805;DHT22;11064;47.102;15.452;2023-04-22T11:26:04;19.90;67.60
21805;DHT22;11064;47.102;15.452;2023-04-22T11:28:30;19.80;70.50
21805;DHT22;11064;47.102;15.452;2023-04-22T11:31:07;19.80;69.20
21805;DHT22;11064;47.102;15.452;2023-04-22T11:33:36;19.50;69.90
21805;DHT22;11064;47.102;15.452;2023-04-22T11:36:04;19.30;67.70
21805;DHT22;11064;47.102;15.452;2023-04-22T11:38:30;19.50;68.40
21805;DHT22;11064;47.102;15.452;2023-04-22T11:40:56;19.80;69.10
21805;DHT22;11064;47.102;15.452;2023-04-22T11:43:23;19.90;69.60
21805;DHT22;11064;47.102;15.452;2023-04-22T11:45:49;20.00;65.50
21805;DHT22;11064;47.102;15.452;2023-04-22T11:48:15;19.90;67.20
21805;DHT22;11064;47.102;15.452;2023-04-22T11:50:43;20.10;68.20
21805;DHT22;11064;47.102;15.452;2023-04-22T11:53:17;20.50;65.60
21805;DHT22;11064;47.102;15.452;2023-04-22T11:55:45;20.80;67.20
21805;DHT22;11064;47.102;15.452;2023-04-22T11:58:24;20.90;64.50
21805;DHT22;11064;47.102;15.452;2023-04-22T12:00:53;21.00;64.80
21805;DHT22;11064;47.102;15.452;2023-04-22T12:03:24;21.10;64.90
21805;DHT22;11064;47.102;15.452;2023-04-22T12:06:03;21.40;65.50
21805;DHT22;11064;47.102;15.452;2023-04-22T12:08:34;21.70;64.40
21805;DHT22;11064;47.102;15.452;2023-04-22T12:11:12;21.50;61.50
21805;DHT22;11064;47.102;15.452;2023-04-22T12:16:12;21.00;64.20
21805;DHT22;11064;47.102;15.452;2023-04-22T12:18:53;21.00;61.50
21805;DHT22;11064;47.102;15.452;2023-04-22T12:21:24;20.90;62.10
21805;DHT22;11064;47.102;15.452;2023-04-22T12:23:56;20.90;59.30
21805;DHT22;11064;47.102;15.452;2023-04-22T12:26:24;21.10;60.50
21805;DHT22;11064;47.102;15.452;2023-04-22T12:28:52;21.00;60.40
21805;DHT22;11064;47.102;15.452;2023-04-22T12:31:18;20.80;58.70
21805;DHT22;11064;47.102;15.452;2023-04-22T12:33:45;21.10;59.00
21805;DHT22;11064;47.102;15.452;2023-04-22T12:36:11;21.40;61.70
21805;DHT22;11064;47.102;15.452;2023-04-22T12:38:38;21.20;60.30
21805;DHT22;11064;47.102;15.452;2023-04-22T12:41:05;21.30;60.60
21805;DHT22;11064;47.102;15.452;2023-04-22T12:43:31;20.90;59.50
21805;DHT22;11064;47.102;15.452;2023-04-22T12:46:01;20.90;61.70
21805;DHT22;11064;47.102;15.452;2023-04-22T12:48:27;21.00;63.20
21805;DHT22;11064;47.102;15.452;2023-04-22T12:50:53;21.00;62.50
21805;DHT22;11064;47.102;15.452;2023-04-22T12:53:20;20.90;63.20
21805;DHT22;11064;47.102;15.452;2023-04-22T12:55:46;21.00;62.20
21805;DHT22;11064;47.102;15.452;2023-04-22T12:58:12;21.00;61.50
21805;DHT22;11064;47.102;15.452;2023-04-22T13:00:39;21.10;59.10
21805;DHT22;11064;47.102;15.452;2023-04-22T13:03:05;21.40;58.80
21805;DHT22;11064;47.102;15.452;2023-04-22T13:05:31;21.60;59.30
21805;DHT22;11064;47.102;15.452;2023-04-22T13:07:57;21.60;61.80
21805;DHT22;11064;47.102;15.452;2023-04-22T13:10:23;21.60;59.50
21805;DHT22;11064;47.102;15.452;2023-04-22T13:12:50;21.80;60.00
21805;DHT22;11064;47.102;15.452;2023-04-22T13:15:16;22.00;58.70
21805;DHT22;11064;47.102;15.452;2023-04-22T13:17:43;22.20;59.00
21805;DHT22;11064;47.102;15.452;2023-04-22T13:20:10;21.80;56.40
21805;DHT22;11064;47.102;15.452;2023-04-22T13:22:39;21.70;57.90
21805;DHT22;11064;47.102;15.452;2023-04-22T13:25:06;21.60;59.80
21805;DHT22;11064;47.102;15.452;2023-04-22T13:27:32;21.40;61.20
21805;DHT22;11064;47.102;15.452;2023-04-22T13:29:58;21.20;60.60
21805;DHT22;11064;47.102;15.452;2023-04-22T13:32:24;21.30;59.40
21805;DHT22;11064;47.102;15.452;2023-04-22T13:34:50;21.40;60.20
21805;DHT22;11064;47.102;15.452;2023-04-22T13:37:17;21.60;60.50
21805;DHT22;11064;47.102;15.452;2023-04-22T13:39:45;21.80;59.20
21805;DHT22;11064;47.102;15.452;2023-04-22T13:42:11;22.10;59.00
21805;DHT22;11064;47.102;15.452;2023-04-22T13:44:36;22.40;59.40
21805;DHT22;11064;47.102;15.452;2023-04-22T13:47:02;22.60;58.80
21805;DHT22;11064;47.102;15.452;2023-04-22T13:49:28;22.30;58.10
21805;DHT22;11064;47.102;15.452;2023-04-22T13:51:54;22.00;58.30
21805;DHT22;11064;47.102;15.452;2023-04-22T13:54:20;21.90;57.60
21805;DHT22;11064;47.102;15.452;2023-04-22T13:56:47;21.70;59.10
21805;DHT22;11064;47.102;15.452;2023-04-22T13:59:13;21.90;58.90
21805;DHT22;11064;47.102;15.452;2023-04-22T14:01:39;22.00;59.00
21805;DHT22;11064;47.102;15.452;2023-04-22T14:04:05;22.20;56.80
21805;DHT22;11064;47.102;15.452;2023-04-22T14:06:31;22.20;59.60
21805;DHT22;11064;47.102;15.452;2023-04-22T14:08:56;21.80;57.60
21805;DHT22;11064;47.102;15.452;2023-04-22T14:11:22;21.60;56.20
21805;DHT22;11064;47.102;15.452;2023-04-22T14:13:48;21.50;56.20
21805;DHT22;11064;47.102;15.452;2023-04-22T14:16:15;21.40;58.60
21805;DHT22;11064;47.102;15.452;2023-04-22T14:18:42;21.40;59.30
21805;DHT22;11064;47.102;15.452;2023-04-22T14:21:10;21.90;59.00
21805;DHT22;11064;47.102;15.452;2023-04-22T14:23:38;22.10;58.90
21805;DHT22;11064;47.102;15.452;2023-04-22T14:26:05;22.10;58.90
21805;DHT22;11064;47.102;15.452;2023-04-22T14:28:31;22.20;57.90
21805;DHT22;11064;47.102;15.452;2023-04-22T14:30:57;21.90;58.30
21805;DHT22;11064;47.102;15.452;2023-04-22T14:33:23;22.10;58.90
21805;DHT22;11064;47.102;15.452;2023-04-22T14:35:51;22.30;57.90
21805;DHT22;11064;47.102;15.452;2023-04-22T14:38:17;22.60;57.30
21805;DHT22;11064;47.102;15.452;2023-04-22T14:40:43;23.10;56.70
21805;DHT22;11064;47.102;15.452;2023-04-22T14:43:09;23.30;56.40
21805;DHT22;11064;47.102;15.452;2023-04-22T14:45:35;23.10;55.70
21805;DHT22;11064;47.102;15.452;2023-04-22T14:48:01;23.20;54.40
21805;DHT22;11064;47.102;15.452;2023-04-22T14:50:27;23.30;54.20
21805;DHT22;11064;47.102;15.452;2023-04-22T14:52:53;22.90;54.60
21805;DHT22;11064;47.102;15.452;2023-04-22T14:55:20;22.50;55.40
21805;DHT22;11064;47.102;15.452;2023-04-22T14:57:47;22.10;56.90
21805;DHT22;11064;47.102;15.452;2023-04-22T15:00:13;22.00;57.10
21805;DHT22;11064;47.102;15.452;2023-04-22T15:02:39;21.80;56.20
21805;DHT22;11064;47.102;15.452;2023-04-22T15:05:05;21.40;55.30
21805;DHT22;11064;47.102;15.452;2023-04-22T15:07:31;21.30;57.00
21805;DHT22;11064;47.102;15.452;2023-04-22T15:09:57;21.30;58.10
21805;DHT22;11064;47.102;15.452;2023-04-22T15:12:26;21.60;59.00
21805;DHT22;11064;47.102;15.452;2023-04-22T15:14:53;21.70;57.50
21805;DHT22;11064;47.102;15.452;2023-04-22T15:17:19;21.70;56.90
21805;DHT22;11064;47.102;15.452;2023-04-22T15:19:45;21.60;58.70
21805;DHT22;11064;47.102;15.452;2023-04-22T15:22:11;21.70;58.00
21805;DHT22;11064;47.102;15.452;2023-04-22T15:24:37;21.60;57.50
21805;DHT22;11064;47.102;15.452;2023-04-22T15:27:03;21.60;56.70
21805;DHT22;11064;47.102;15.452;2023-04-22T15:29:29;21.50;57.50
21805;DHT22;11064;47.102;15.452;2023-04-22T15:31:56;21.70;58.90
21805;DHT22;11064;47.102;15.452;2023-04-22T15:34:23;22.00;59.10
21805;DHT22;11064;47.102;15.452;2023-04-22T15:36:49;22.00;57.80
21805;DHT22;11064;47.102;15.452;2023-04-22T15:39:14;21.90;56.40
21805;DHT22;11064;47.102;15.452;2023-04-22T15:41:40;22.10;57.00